Time;durP1;ratioP1;P1;durP2;ratioP2;P2;SDS_P1;SDS_P2;PMS_P1;PMS_P2;Temp;Humidity;BMP_temperature;BMP_pressure;BME280_temperature;BME280_humidity;BME280_pressure;Samples;Min_cycle;Max_cycle;Signal;HPM_P1;HPM_P2
2023/09/25 00:00:31;;;;;;;1.30;1.20;;;;;;;;;;5114821;28;20223;-92
2023/09/25 00:03:00;;;;;;;1.48;1.30;;;;;;;;;;5115718;28;20198;-92
2023/09/25 00:05:28;;;;;;;1.65;1.52;;;;;;;;;;5114333;28;20480;-93
2023/09/25 00:07:56;;;;;;;2.47;1.38;;;;;;;;;;5114529;28;20199;-92
2023/09/25 00:10:25;;;;;;;3.33;1.77;;;;;;;;;;5114147;28;20230;-92
2023/09/25 00:12:53;;;;;;;2.05;1.20;;;;;;;;;;5114154;28;20207;-91
2023/09/25 00:15:20;;;;;;;1.52;1.30;;;;;;;;;;5113872;28;20267;-91
2023/09/25 00:17:48;;;;;;;0.95;0.95;;;;;;;;;;5114114;27;20199;-91
2023/09/25 00:20:20;;;;;;;1.42;1.33;;;;;;;;;;5114051;28;20216;-92
2023/09/25 00:22:47;;;;;;;1.27;1.05;;;;;;;;;;5114058;28;20256;-92
2023/09/25 00:25:15;;;;;;;1.42;1.33;;;;;;;;;;5114029;28;20204;-92
2023/09/25 00:27:45;;;;;;;1.67;1.10;;;;;;;;;;5113686;27;20204;-92
2023/09/25 00:30:14;;;;;;;1.42;1.27;;;;;;;;;;5113453;27;20307;-92
2023/09/25 00:32:42;;;;;;;1.02;1.02;;;;;;;;;;5113955;28;20199;-91
2023/09/25 00:35:10;;;;;;;1.40;1.30;;;;;;;;;;5113942;28;20211;-91
2023/09/25 00:37:38;;;;;;;1.10;1.10;;;;;;;;;;5114018;27;20287;-91
2023/09/25 00:40:13;;;;;;;1.25;1.20;;;;;;;;;;5113516;28;20310;-91
2023/09/25 00:42:41;;;;;;;1.00;1.00;;;;;;;;;;5113584;27;20211;-92
2023/09/25 00:45:11;;;;;;;1.52;1.42;;;;;;;;;;5114250;28;20751;-91
2023/09/25 00:47:39;;;;;;;1.00;1.00;;;;;;;;;;5117896;28;20278;-91
2023/09/25 00:50:09;;;;;;;1.20;1.20;;;;;;;;;;5113626;28;20227;-92
2023/09/25 00:52:39;;;;;;;1.13;1.02;;;;;;;;;;5113788;28;20202;-92
2023/09/25 00:55:07;;;;;;;1.33;1.23;;;;;;;;;;5113578;28;20641;-92
2023/09/25 00:57:37;;;;;;;1.15;1.13;;;;;;;;;;5113941;28;20219;-91
2023/09/25 01:00:11;;;;;;;0.90;0.90;;;;;;;;;;5113830;28;20212;-91
2023/09/25 01:02:40;;;;;;;0.90;0.90;;;;;;;;;;5113863;28;20202;-92
2023/09/25 01:05:09;;;;;;;1.10;1.10;;;;;;;;;;5124520;28;20235;-92
2023/09/25 01:07:37;;;;;;;1.00;0.98;;;;;;;;;;5113432;28;20200;-92
2023/09/25 01:10:09;;;;;;;1.23;1.23;;;;;;;;;;5113248;28;20246;-91
2023/09/25 01:12:38;;;;;;;1.52;1.42;;;;;;;;;;5113280;28;20235;-91
2023/09/25 01:15:06;;;;;;;1.40;1.40;;;;;;;;;;5113631;28;20286;-92
2023/09/25 01:17:34;;;;;;;1.48;1.38;;;;;;;;;;5123337;28;20264;-90
2023/09/25 01:20:12;;;;;;;1.17;1.17;;;;;;;;;;5114427;28;20223;-93
2023/09/25 01:22:42;;;;;;;2.35;2.03;;;;;;;;;;5120667;28;20196;-90
2023/09/25 01:25:11;;;;;;;1.25;1.20;;;;;;;;;;5139058;28;20194;-90
2023/09/25 01:27:39;;;;;;;1.50;1.40;;;;;;;;;;5138828;28;20184;-90
2023/09/25 01:30:09;;;;;;;1.55;1.45;;;;;;;;;;5138593;28;20229;-90
2023/09/25 01:32:37;;;;;;;1.30;1.20;;;;;;;;;;5138766;28;20243;-91
2023/09/25 01:35:08;;;;;;;1.20;1.20;;;;;;;;;;5138774;28;20231;-91
2023/09/25 01:37:35;;;;;;;1.35;1.25;;;;;;;;;;5138223;28;20184;-90
2023/09/25 01:40:13;;;;;;;1.52;1.42;;;;;;;;;;5138111;28;20214;-90
2023/09/25 01:42:41;;;;;;;1.33;1.33;;;;;;;;;;5138254;27;20198;-90
2023/09/25 01:45:10;;;;;;;1.50;1.40;;;;;;;;;;5138516;28;20210;-90
2023/09/25 01:47:39;;;;;;;1.42;1.33;;;;;;;;;;5138578;28;20180;-89
2023/09/25 01:50:10;;;;;;;1.63;1.38;;;;;;;;;;5138163;28;20225;-89
2023/09/25 01:52:38;;;;;;;2.30;1.73;;;;;;;;;;5138369;28;20192;-90
2023/09/25 01:55:08;;;;;;;1.60;1.50;;;;;;;;;;5138577;28;20172;-90
2023/09/25 01:57:36;;;;;;;1.67;1.50;;;;;;;;;;5138523;28;20184;-90
2023/09/25 02:00:09;;;;;;;1.80;1.70;;;;;;;;;;5138219;28;20263;-91
2023/09/25 02:02:36;;;;;;;1.60;1.50;;;;;;;;;;5138394;28;20207;-88
2023/09/25 02:05:05;;;;;;;1.77;1.67;;;;;;;;;;5138260;28;20207;-90
2023/09/25 02:07:33;;;;;;;1.80;1.70;;;;;;;;;;5138323;28;20255;-91
2023/09/25 02:10:00;;;;;;;2.15;1.73;;;;;;;;;;5137946;28;20222;-90
2023/09/25 02:12:29;;;;;;;2.00;1.90;;;;;;;;;;5138163;28;20203;-89
2023/09/25 02:15:01;;;;;;;1.95;1.80;;;;;;;;;;5138401;28;20370;-89
2023/09/25 02:17:29;;;;;;;2.03;1.92;;;;;;;;;;5138186;28;20200;-89
2023/09/25 02:20:03;;;;;;;1.70;1.60;;;;;;;;;;5130995;28;20195;-91
2023/09/25 02:22:31;;;;;;;1.60;1.50;;;;;;;;;;5114502;28;20203;-91
2023/09/25 02:24:59;;;;;;;1.60;1.50;;;;;;;;;;5114305;28;20284;-91
2023/09/25 02:27:27;;;;;;;1.30;1.30;;;;;;;;;;5114666;28;20282;-91
2023/09/25 02:29:55;;;;;;;1.88;1.73;;;;;;;;;;5113481;28;20223;-92
2023/09/25 02:32:23;;;;;;;1.85;1.75;;;;;;;;;;5112732;28;20609;-91
2023/09/25 02:34:50;;;;;;;1.75;1.58;;;;;;;;;;5112819;28;20638;-92
2023/09/25 02:37:18;;;;;;;1.73;1.63;;;;;;;;;;5112660;28;20244;-92
2023/09/25 02:39:46;;;;;;;1.45;1.35;;;;;;;;;;5122242;28;20220;-90
2023/09/25 02:42:13;;;;;;;1.83;1.67;;;;;;;;;;5112477;28;20645;-91
2023/09/25 02:44:42;;;;;;;3.25;1.98;;;;;;;;;;5112259;28;20283;-91
2023/09/25 02:47:10;;;;;;;1.50;1.40;;;;;;;;;;5112693;27;20303;-92
2023/09/25 02:49:37;;;;;;;1.30;1.30;;;;;;;;;;5113410;28;20590;-92
2023/09/25 02:52:05;;;;;;;1.88;1.77;;;;;;;;;;5115980;28;20310;-91
2023/09/25 02:54:33;;;;;;;1.50;1.40;;;;;;;;;;5115929;27;20287;-92
2023/09/25 02:57:00;;;;;;;1.75;1.65;;;;;;;;;;5117330;27;20656;-92
2023/09/25 02:59:28;;;;;;;1.98;1.88;;;;;;;;;;5123703;27;20243;-90
2023/09/25 03:01:57;;;;;;;1.70;1.60;;;;;;;;;;5115648;28;20234;-93
2023/09/25 03:04:24;;;;;;;1.77;1.65;;;;;;;;;;5115618;28;20287;-91
2023/09/25 03:06:52;;;;;;;2.30;1.50;;;;;;;;;;5116284;27;20282;-92
2023/09/25 03:09:19;;;;;;;1.50;1.40;;;;;;;;;;5115516;28;20302;-92
2023/09/25 03:11:47;;;;;;;1.60;1.50;;;;;;;;;;5115180;28;20772;-92
2023/09/25 03:14:15;;;;;;;1.95;1.85;;;;;;;;;;5115573;28;20653;-91
2023/09/25 03:16:43;;;;;;;1.85;1.75;;;;;;;;;;5095036;28;20196;-92
2023/09/25 03:19:12;;;;;;;1.70;1.60;;;;;;;;;;5094916;28;20684;-92
2023/09/25 03:21:42;;;;;;;1.60;1.50;;;;;;;;;;5095253;28;20295;-91
2023/09/25 03:24:10;;;;;;;3.17;1.40;;;;;;;;;;5094866;28;20204;-92
2023/09/25 03:26:38;;;;;;;1.30;1.30;;;;;;;;;;5095057;28;20200;-91
2023/09/25 03:29:06;;;;;;;1.27;1.20;;;;;;;;;;5094670;28;20223;-92
2023/09/25 03:31:34;;;;;;;1.67;1.45;;;;;;;;;;5094942;28;20223;-92
2023/09/25 03:34:02;;;;;;;1.90;1.55;;;;;;;;;;5095002;28;20206;-93
2023/09/25 03:36:30;;;;;;;1.70;1.60;;;;;;;;;;5104268;28;20224;-91
2023/09/25 03:38:58;;;;;;;2.22;2.13;;;;;;;;;;5094713;28;20263;-92
2023/09/25 03:41:26;;;;;;;1.63;1.52;;;;;;;;;;5094997;28;20288;-91
2023/09/25 03:43:53;;;;;;;1.55;1.45;;;;;;;;;;5114164;28;20290;-93
2023/09/25 03:46:21;;;;;;;1.70;1.60;;;;;;;;;;5124784;28;20254;-91
2023/09/25 03:48:49;;;;;;;2.28;2.00;;;;;;;;;;5114758;28;20227;-91
2023/09/25 03:51:17;;;;;;;1.90;1.80;;;;;;;;;;5114749;28;20673;-91
2023/09/25 03:53:46;;;;;;;1.90;1.80;;;;;;;;;;5105890;27;20272;-91
2023/09/25 03:56:14;;;;;;;1.50;1.40;;;;;;;;;;5101377;28;20737;-91
2023/09/25 03:58:41;;;;;;;1.67;1.58;;;;;;;;;;5101536;28;20218;-91
2023/09/25 04:01:09;;;;;;;1.50;1.40;;;;;;;;;;5100475;28;20858;-89
2023/09/25 04:03:37;;;;;;;1.67;1.58;;;;;;;;;;5102211;28;20290;-91
2023/09/25 04:06:04;;;;;;;2.20;2.00;;;;;;;;;;5122885;28;20203;-90
2023/09/25 04:08:32;;;;;;;1.98;1.80;;;;;;;;;;5129947;27;20223;-90
2023/09/25 04:11:01;;;;;;;2.90;2.20;;;;;;;;;;5130718;27;20195;-91
2023/09/25 04:13:31;;;;;;;1.88;1.77;;;;;;;;;;5125980;28;20219;-92
2023/09/25 04:15:59;;;;;;;2.40;2.20;;;;;;;;;;5101230;28;20231;-91
2023/09/25 04:18:27;;;;;;;1.90;1.80;;;;;;;;;;5101812;28;20283;-91
2023/09/25 04:20:55;;;;;;;2.03;1.83;;;;;;;;;;5103359;28;20680;-91
2023/09/25 04:23:23;;;;;;;1.90;1.80;;;;;;;;;;5103764;28;20211;-91
2023/09/25 04:25:52;;;;;;;2.03;1.92;;;;;;;;;;5102643;28;20196;-91
2023/09/25 04:28:21;;;;;;;2.67;2.47;;;;;;;;;;5102913;28;20203;-90
2023/09/25 04:30:49;;;;;;;1.98;1.88;;;;;;;;;;5103430;28;20208;-91
2023/09/25 04:33:17;;;;;;;2.38;1.88;;;;;;;;;;5101778;28;20245;-91
2023/09/25 04:35:44;;;;;;;1.65;1.55;;;;;;;;;;5103640;28;20199;-91
2023/09/25 04:38:12;;;;;;;2.03;1.80;;;;;;;;;;5107595;28;20199;-92
2023/09/25 04:40:42;;;;;;;2.65;1.50;;;;;;;;;;5102843;28;20203;-91
2023/09/25 04:43:09;;;;;;;1.60;1.50;;;;;;;;;;5102065;28;20216;-89
2023/09/25 04:45:38;;;;;;;1.98;1.88;;;;;;;;;;5101551;27;20222;-91
2023/09/25 04:48:07;;;;;;;1.50;1.40;;;;;;;;;;5102895;28;20227;-91
2023/09/25 04:50:34;;;;;;;2.20;2.00;;;;;;;;;;5101359;28;20216;-91
2023/09/25 04:53:02;;;;;;;1.20;1.20;;;;;;;;;;5100109;28;20227;-92
2023/09/25 04:55:29;;;;;;;1.40;1.30;;;;;;;;;;5100584;28;20207;-91
2023/09/25 04:57:57;;;;;;;2.08;1.70;;;;;;;;;;5100359;28;20195;-91
2023/09/25 05:00:26;;;;;;;1.60;1.50;;;;;;;;;;5100311;28;20226;-90
2023/09/25 05:02:57;;;;;;;1.55;1.45;;;;;;;;;;5100586;28;20211;-91
2023/09/25 05:05:25;;;;;;;1.83;1.70;;;;;;;;;;5099942;28;20207;-91
2023/09/25 05:07:54;;;;;;;1.60;1.50;;;;;;;;;;5104980;28;20283;-90
2023/09/25 05:10:23;;;;;;;1.40;1.30;;;;;;;;;;5100385;28;20692;-91
2023/09/25 05:12:51;;;;;;;1.50;1.40;;;;;;;;;;5099507;28;20228;-91
2023/09/25 05:15:19;;;;;;;1.60;1.50;;;;;;;;;;5100338;28;20195;-91
2023/09/25 05:17:48;;;;;;;2.25;2.15;;;;;;;;;;5101638;28;20583;-92
2023/09/25 05:20:19;;;;;;;1.60;1.50;;;;;;;;;;5102620;28;20886;-92
2023/09/25 05:22:49;;;;;;;1.40;1.30;;;;;;;;;;5103265;28;20203;-91
2023/09/25 05:25:18;;;;;;;1.98;1.58;;;;;;;;;;5100981;28;20204;-91
2023/09/25 05:27:47;;;;;;;2.08;1.73;;;;;;;;;;5100652;28;20210;-91
2023/09/25 05:30:17;;;;;;;2.10;1.90;;;;;;;;;;5100424;28;20224;-92
2023/09/25 05:32:48;;;;;;;1.63;1.52;;;;;;;;;;5100391;28;20685;-90
2023/09/25 05:35:17;;;;;;;2.17;1.92;;;;;;;;;;5101208;28;20204;-91
2023/09/25 05:37:47;;;;;;;1.50;1.40;;;;;;;;;;5100755;28;20195;-92
2023/09/25 05:40:16;;;;;;;1.63;1.52;;;;;;;;;;5100762;28;20704;-90
2023/09/25 05:42:45;;;;;;;1.60;1.50;;;;;;;;;;5099626;28;20669;-92
2023/09/25 05:45:15;;;;;;;1.23;1.23;;;;;;;;;;5100301;28;20192;-91
2023/09/25 05:47:43;;;;;;;1.90;1.80;;;;;;;;;;5100949;28;20955;-91
2023/09/25 05:50:11;;;;;;;1.33;1.33;;;;;;;;;;5099928;28;20273;-91
2023/09/25 05:52:41;;;;;;;1.20;1.20;;;;;;;;;;5100243;28;20888;-91
2023/09/25 05:55:10;;;;;;;1.50;1.40;;;;;;;;;;5110780;28;20290;-92
2023/09/25 05:57:38;;;;;;;1.95;1.80;;;;;;;;;;5112229;28;20275;-92
2023/09/25 06:00:12;;;;;;;1.30;1.30;;;;;;;;;;5112247;27;20298;-93
2023/09/25 06:02:40;;;;;;;1.42;1.30;;;;;;;;;;5113023;28;20245;-91
2023/09/25 06:05:08;;;;;;;1.45;1.35;;;;;;;;;;5112676;27;20294;-92
2023/09/25 06:07:36;;;;;;;1.15;1.15;;;;;;;;;;5113089;27;20199;-92
2023/09/25 06:10:07;;;;;;;1.23;1.23;;;;;;;;;;5112712;28;20219;-91
2023/09/25 06:12:35;;;;;;;1.48;1.38;;;;;;;;;;5111849;28;20200;-91
2023/09/25 06:15:05;;;;;;;2.20;2.00;;;;;;;;;;5112694;28;20204;-92
2023/09/25 06:17:32;;;;;;;1.25;1.15;;;;;;;;;;5113081;27;20204;-92
2023/09/25 06:20:00;;;;;;;1.35;1.25;;;;;;;;;;5112725;27;20307;-93
2023/09/25 06:22:28;;;;;;;1.50;1.40;;;;;;;;;;5113618;27;20200;-92
2023/09/25 06:24:56;;;;;;;1.85;1.65;;;;;;;;;;5116578;27;20298;-92
2023/09/25 06:27:25;;;;;;;1.48;1.38;;;;;;;;;;5118425;27;20601;-91
2023/09/25 06:29:56;;;;;;;4.57;2.05;;;;;;;;;;5118070;27;20336;-94
2023/09/25 06:32:25;;;;;;;1.85;1.75;;;;;;;;;;5117554;28;20613;-91
2023/09/25 06:34:52;;;;;;;1.65;1.55;;;;;;;;;;5116622;27;20246;-93
2023/09/25 06:37:20;;;;;;;1.60;1.50;;;;;;;;;;5116828;27;20587;-93
2023/09/25 06:39:48;;;;;;;1.52;1.42;;;;;;;;;;5117019;27;20219;-91
2023/09/25 06:42:16;;;;;;;2.20;1.80;;;;;;;;;;5121123;27;20295;-90
2023/09/25 06:44:45;;;;;;;1.70;1.60;;;;;;;;;;5123115;28;20210;-92
2023/09/25 06:47:13;;;;;;;1.90;1.80;;;;;;;;;;5121109;28;20283;-94
2023/09/25 06:49:40;;;;;;;1.70;1.60;;;;;;;;;;5118854;28;20243;-93
2023/09/25 06:52:08;;;;;;;6.68;2.00;;;;;;;;;;5117609;28;20192;-94
2023/09/25 06:54:35;;;;;;;1.95;1.85;;;;;;;;;;5117035;28;20225;-93
2023/09/25 06:57:03;;;;;;;1.92;1.83;;;;;;;;;;5117066;28;20263;-94
2023/09/25 06:59:32;;;;;;;1.95;1.83;;;;;;;;;;5116764;28;20302;-94
2023/09/25 07:02:01;;;;;;;2.03;1.90;;;;;;;;;;5116699;28;20214;-92
2023/09/25 07:04:28;;;;;;;2.80;2.33;;;;;;;;;;5117745;28;20284;-94
2023/09/25 07:06:56;;;;;;;2.88;2.42;;;;;;;;;;5120040;28;20219;-93
2023/09/25 07:09:23;;;;;;;2.25;2.05;;;;;;;;;;5126587;28;20238;-94
2023/09/25 07:11:52;;;;;;;2.33;1.85;;;;;;;;;;5116431;28;20199;-93
2023/09/25 07:14:21;;;;;;;2.45;2.25;;;;;;;;;;5117245;28;20227;-92
2023/09/25 07:16:49;;;;;;;3.40;2.38;;;;;;;;;;5118732;28;20199;-93
2023/09/25 07:19:18;;;;;;;2.17;1.98;;;;;;;;;;5117017;27;20768;-93
2023/09/25 07:21:45;;;;;;;2.78;2.03;;;;;;;;;;5127830;27;20187;-92
2023/09/25 07:24:13;;;;;;;2.03;1.92;;;;;;;;;;5131761;28;20238;-94
2023/09/25 07:26:40;;;;;;;2.15;1.95;;;;;;;;;;5126655;27;20219;-94
2023/09/25 07:29:10;;;;;;;2.28;2.05;;;;;;;;;;5120327;28;20287;-95
2023/09/25 07:31:37;;;;;;;1.83;1.73;;;;;;;;;;5120110;27;20210;-95
2023/09/25 07:34:05;;;;;;;2.67;2.45;;;;;;;;;;5119496;27;20230;-94
2023/09/25 07:36:34;;;;;;;2.30;2.03;;;;;;;;;;5117656;27;20191;-95
2023/09/25 07:39:01;;;;;;;1.98;1.88;;;;;;;;;;5122549;27;20284;-94
2023/09/25 07:41:29;;;;;;;2.88;2.60;;;;;;;;;;5126069;28;20294;-93
2023/09/25 07:43:56;;;;;;;2.30;2.10;;;;;;;;;;5119895;28;20290;-93
2023/09/25 07:46:25;;;;;;;3.55;3.08;;;;;;;;;;5125063;28;20179;-93
2023/09/25 07:48:53;;;;;;;3.60;2.80;;;;;;;;;;5119727;28;20236;-93
2023/09/25 07:51:24;;;;;;;2.05;1.92;;;;;;;;;;5123379;28;20200;-94
2023/09/25 07:53:58;;;;;;;2.40;2.20;;;;;;;;;;5123689;28;20239;-92
2023/09/25 07:56:25;;;;;;;2.65;1.80;;;;;;;;;;5126618;28;20290;-94
2023/09/25 07:58:55;;;;;;;2.45;1.75;;;;;;;;;;5124767;28;20270;-94
2023/09/25 08:01:29;;;;;;;2.03;1.90;;;;;;;;;;5125272;28;20208;-93
2023/09/25 08:03:57;;;;;;;1.48;1.38;;;;;;;;;;5125679;28;20255;-93
2023/09/25 08:06:27;;;;;;;3.15;1.80;;;;;;;;;;5129879;28;20219;-92
2023/09/25 08:08:57;;;;;;;2.17;1.80;;;;;;;;;;5126574;28;20219;-93
2023/09/25 08:11:24;;;;;;;1.67;1.58;;;;;;;;;;5127150;28;20230;-92
2023/09/25 08:13:53;;;;;;;1.90;1.70;;;;;;;;;;5126379;27;20234;-93
2023/09/25 08:16:22;;;;;;;2.40;1.65;;;;;;;;;;5127942;28;20286;-93
2023/09/25 08:18:49;;;;;;;1.70;1.60;;;;;;;;;;5119661;28;20215;-93
2023/09/25 08:21:17;;;;;;;1.98;1.88;;;;;;;;;;5131790;28;20226;-93
2023/09/25 08:23:45;;;;;;;2.35;2.00;;;;;;;;;;5134635;28;20194;-92
2023/09/25 08:26:16;;;;;;;2.08;1.92;;;;;;;;;;5135404;28;20204;-92
2023/09/25 08:28:44;;;;;;;2.05;1.60;;;;;;;;;;5132754;28;20215;-94
2023/09/25 08:31:11;;;;;;;1.92;1.80;;;;;;;;;;5127017;28;20259;-93
2023/09/25 08:33:40;;;;;;;2.38;2.13;;;;;;;;;;5126219;28;20196;-92
2023/09/25 08:36:11;;;;;;;1.77;1.65;;;;;;;;;;5122400;28;20223;-93
2023/09/25 08:38:38;;;;;;;2.13;1.95;;;;;;;;;;5129015;28;20235;-94
2023/09/25 08:41:06;;;;;;;3.28;3.08;;;;;;;;;;5132911;28;20223;-92
2023/09/25 08:43:35;;;;;;;1.60;1.50;;;;;;;;;;5126453;28;20676;-92
2023/09/25 08:46:03;;;;;;;2.20;2.00;;;;;;;;;;5127691;27;20227;-92
2023/09/25 08:48:30;;;;;;;1.67;1.23;;;;;;;;;;5125751;27;20287;-94
2023/09/25 08:50:58;;;;;;;2.25;2.05;;;;;;;;;;5131288;27;20200;-92
2023/09/25 08:53:26;;;;;;;1.92;1.60;;;;;;;;;;5133146;27;20203;-93
2023/09/25 08:55:54;;;;;;;2.00;1.90;;;;;;;;;;5134863;27;20227;-89
2023/09/25 08:58:22;;;;;;;2.05;1.95;;;;;;;;;;5137266;27;20207;-92
2023/09/25 09:00:51;;;;;;;2.63;1.90;;;;;;;;;;5139045;27;20188;-89
2023/09/25 09:03:18;;;;;;;1.98;1.83;;;;;;;;;;5139049;27;20195;-89
2023/09/25 09:05:46;;;;;;;2.13;2.00;;;;;;;;;;5136411;27;20251;-93
2023/09/25 09:08:16;;;;;;;1.52;1.42;;;;;;;;;;5129629;27;20202;-92
2023/09/25 09:10:44;;;;;;;1.45;1.35;;;;;;;;;;5126085;27;20196;-92
2023/09/25 09:13:12;;;;;;;1.67;1.58;;;;;;;;;;5126797;27;20231;-93
2023/09/25 09:15:41;;;;;;;1.60;1.50;;;;;;;;;;5124031;28;20219;-93
2023/09/25 09:18:21;;;;;;;1.52;1.42;;;;;;;;;;5120548;28;20286;-93
2023/09/25 09:20:49;;;;;;;2.45;1.90;;;;;;;;;;5127063;28;20639;-93
2023/09/25 09:23:17;;;;;;;3.88;1.90;;;;;;;;;;5126756;28;20203;-93
2023/09/25 09:25:46;;;;;;;1.80;1.38;;;;;;;;;;5127525;28;20453;-93
2023/09/25 09:28:14;;;;;;;1.60;1.50;;;;;;;;;;5128417;28;20186;-93
2023/09/25 09:30:43;;;;;;;2.60;2.15;;;;;;;;;;5130968;28;20199;-93
2023/09/25 09:33:11;;;;;;;2.75;1.35;;;;;;;;;;5121487;28;20294;-92
2023/09/25 09:35:43;;;;;;;1.65;1.55;;;;;;;;;;5120561;28;20307;-91
2023/09/25 09:38:11;;;;;;;1.50;1.40;;;;;;;;;;5123812;28;20207;-93
2023/09/25 09:40:39;;;;;;;1.67;1.58;;;;;;;;;;5125730;28;20203;-94
2023/09/25 09:43:08;;;;;;;1.33;1.23;;;;;;;;;;5120412;28;20203;-93
2023/09/25 09:45:36;;;;;;;1.48;1.38;;;;;;;;;;5118091;28;20238;-94
2023/09/25 09:48:04;;;;;;;1.35;1.35;;;;;;;;;;5122449;28;20211;-92
2023/09/25 09:50:33;;;;;;;1.48;1.27;;;;;;;;;;5123536;28;20220;-93
2023/09/25 09:53:04;;;;;;;1.80;1.70;;;;;;;;;;5122368;28;20204;-93
2023/09/25 09:55:33;;;;;;;1.02;1.02;;;;;;;;;;5125218;28;20225;-92
2023/09/25 09:58:02;;;;;;;14.50;2.40;;;;;;;;;;5120928;28;20278;-93
2023/09/25 10:00:30;;;;;;;1.48;1.42;;;;;;;;;;5126049;28;20211;-93
2023/09/25 10:02:58;;;;;;;1.40;1.30;;;;;;;;;;5126627;28;20230;-92
2023/09/25 10:05:26;;;;;;;1.83;1.73;;;;;;;;;;5131045;28;20778;-94
2023/09/25 10:08:10;;;;;;;1.30;1.27;;;;;;;;;;5125620;28;20274;-93
2023/09/25 10:10:39;;;;;;;1.30;1.20;;;;;;;;;;5120927;28;20673;-94
2023/09/25 10:13:15;;;;;;;1.40;1.30;;;;;;;;;;5123296;28;20199;-92
2023/09/25 10:15:53;;;;;;;1.63;1.52;;;;;;;;;;5122621;28;20219;-92
2023/09/25 10:18:21;;;;;;;1.30;1.20;;;;;;;;;;5124458;28;20322;-93
2023/09/25 10:20:49;;;;;;;1.25;1.25;;;;;;;;;;5121410;28;20203;-93
2023/09/25 10:23:23;;;;;;;1.00;1.00;;;;;;;;;;5123221;28;20259;-93
2023/09/25 10:25:54;;;;;;;1.98;1.33;;;;;;;;;;5126326;28;20233;-92
2023/09/25 10:28:27;;;;;;;1.10;1.10;;;;;;;;;;5126249;28;20222;-92
2023/09/25 10:30:58;;;;;;;1.00;1.00;;;;;;;;;;5125349;27;20222;-92
2023/09/25 10:33:29;;;;;;;1.08;0.98;;;;;;;;;;5123320;28;20680;-92
2023/09/25 10:36:03;;;;;;;1.33;1.10;;;;;;;;;;5121676;28;20227;-93
2023/09/25 10:38:34;;;;;;;1.35;1.20;;;;;;;;;;5127806;28;20700;-93
2023/09/25 10:41:04;;;;;;;1.52;1.30;;;;;;;;;;5131357;28;20227;-93
2023/09/25 10:43:32;;;;;;;1.40;1.30;;;;;;;;;;5126654;28;20219;-93
2023/09/25 10:46:00;;;;;;;1.60;1.40;;;;;;;;;;5130691;27;20224;-92
2023/09/25 10:48:28;;;;;;;2.33;1.30;;;;;;;;;;5133938;27;20226;-94
2023/09/25 10:50:56;;;;;;;1.73;1.63;;;;;;;;;;5127557;27;20268;-94
2023/09/25 10:53:25;;;;;;;1.83;1.52;;;;;;;;;;5133915;27;20221;-92
2023/09/25 10:55:55;;;;;;;1.70;1.35;;;;;;;;;;5127206;27;20253;-93
2023/09/25 10:58:23;;;;;;;2.30;2.05;;;;;;;;;;5129439;28;20211;-92
2023/09/25 11:00:50;;;;;;;1.80;1.70;;;;;;;;;;5132234;27;20184;-93
2023/09/25 11:03:18;;;;;;;1.20;1.20;;;;;;;;;;5135826;27;20643;-93
2023/09/25 11:05:47;;;;;;;2.33;2.22;;;;;;;;;;5132082;27;20244;-93
2023/09/25 11:08:16;;;;;;;1.40;1.30;;;;;;;;;;5132883;27;20196;-92
2023/09/25 11:10:44;;;;;;;1.42;1.30;;;;;;;;;;5128244;27;20200;-92
2023/09/25 11:13:13;;;;;;;1.48;1.38;;;;;;;;;;5126588;28;20207;-92
2023/09/25 11:15:41;;;;;;;1.52;1.10;;;;;;;;;;5126089;28;20227;-92
2023/09/25 11:18:10;;;;;;;1.10;1.10;;;;;;;;;;5126091;28;20632;-93
2023/09/25 11:20:39;;;;;;;1.50;1.40;;;;;;;;;;5128857;28;20215;-93
2023/09/25 11:23:09;;;;;;;3.30;1.55;;;;;;;;;;5129940;28;20211;-93
2023/09/25 11:25:44;;;;;;;1.40;1.30;;;;;;;;;;5133474;28;20195;-92
2023/09/25 11:28:17;;;;;;;1.15;1.05;;;;;;;;;;5131967;28;20200;-92
2023/09/25 11:30:47;;;;;;;1.63;1.52;;;;;;;;;;5131002;28;20203;-93
2023/09/25 11:33:19;;;;;;;1.27;1.25;;;;;;;;;;5132252;28;20203;-93
2023/09/25 11:35:49;;;;;;;1.83;1.30;;;;;;;;;;5130670;28;20209;-91
2023/09/25 11:38:21;;;;;;;1.98;1.40;;;;;;;;;;5132175;28;20291;-93
2023/09/25 11:40:50;;;;;;;1.40;1.30;;;;;;;;;;5133752;28;20565;-90
2023/09/25 11:43:19;;;;;;;3.00;1.50;;;;;;;;;;5133822;28;20200;-92
2023/09/25 11:45:48;;;;;;;1.40;1.30;;;;;;;;;;5136697;27;20244;-92
2023/09/25 11:48:18;;;;;;;2.03;1.85;;;;;;;;;;5134427;27;20192;-93
2023/09/25 11:50:46;;;;;;;1.60;1.50;;;;;;;;;;5136239;27;20222;-92
2023/09/25 11:53:13;;;;;;;2.17;1.63;;;;;;;;;;5131314;27;20223;-92
2023/09/25 11:55:41;;;;;;;1.92;1.52;;;;;;;;;;5137010;28;20231;-92
2023/09/25 11:58:09;;;;;;;1.60;1.50;;;;;;;;;;5129443;27;20215;-92
2023/09/25 12:00:39;;;;;;;1.60;1.50;;;;;;;;;;5129458;27;20195;-92
2023/09/25 12:03:08;;;;;;;1.50;1.40;;;;;;;;;;5126508;27;20340;-92
2023/09/25 12:05:36;;;;;;;2.15;1.70;;;;;;;;;;5127420;28;20277;-93
2023/09/25 12:08:05;;;;;;;1.55;1.45;;;;;;;;;;5127929;27;20214;-93
2023/09/25 12:10:37;;;;;;;1.05;1.05;;;;;;;;;;5126217;28;20215;-93
2023/09/25 12:13:05;;;;;;;1.60;1.50;;;;;;;;;;5127128;27;20195;-93
2023/09/25 12:15:33;;;;;;;1.40;1.30;;;;;;;;;;5126778;28;20210;-93
2023/09/25 12:18:02;;;;;;;1.00;1.00;;;;;;;;;;5128215;28;20219;-92
2023/09/25 12:20:30;;;;;;;1.33;1.23;;;;;;;;;;5128224;28;20220;-91
2023/09/25 12:22:58;;;;;;;1.08;1.05;;;;;;;;;;5126601;28;20214;-92
2023/09/25 12:25:25;;;;;;;1.17;1.17;;;;;;;;;;5125087;27;20223;-93
2023/09/25 12:27:53;;;;;;;1.48;1.38;;;;;;;;;;5133131;28;20210;-91
2023/09/25 12:30:21;;;;;;;1.73;1.48;;;;;;;;;;5133143;28;20204;-91
2023/09/25 12:32:49;;;;;;;1.25;1.15;;;;;;;;;;5130091;28;20192;-92
2023/09/25 12:35:18;;;;;;;1.25;1.15;;;;;;;;;;5129829;27;20263;-92
2023/09/25 12:37:49;;;;;;;1.10;1.10;;;;;;;;;;5129631;28;20219;-92
2023/09/25 12:40:17;;;;;;;1.48;1.38;;;;;;;;;;5130694;28;20223;-92
2023/09/25 12:42:46;;;;;;;1.30;1.30;;;;;;;;;;5130378;28;20234;-92
2023/09/25 12:45:13;;;;;;;0.90;0.90;;;;;;;;;;5132248;27;20199;-92
2023/09/25 12:47:41;;;;;;;1.08;1.08;;;;;;;;;;5132755;27;20206;-93
2023/09/25 12:50:10;;;;;;;1.08;1.00;;;;;;;;;;5131198;27;20235;-91
2023/09/25 12:52:39;;;;;;;1.17;1.17;;;;;;;;;;5135539;28;20199;-93
2023/09/25 12:55:08;;;;;;;1.35;1.25;;;;;;;;;;5128919;27;20236;-92
2023/09/25 12:57:36;;;;;;;1.27;1.17;;;;;;;;;;5130664;28;20231;-92
2023/09/25 13:00:05;;;;;;;1.38;1.27;;;;;;;;;;5132651;27;20262;-92
2023/09/25 13:02:33;;;;;;;1.17;1.08;;;;;;;;;;5133308;27;20221;-92
2023/09/25 13:05:01;;;;;;;1.35;1.25;;;;;;;;;;5138030;27;20199;-91
2023/09/25 13:07:28;;;;;;;1.17;1.17;;;;;;;;;;5138093;27;20191;-91
2023/09/25 13:09:57;;;;;;;1.00;1.00;;;;;;;;;;5137185;27;20226;-91
2023/09/25 13:12:25;;;;;;;1.00;1.00;;;;;;;;;;5137266;27;20202;-91
2023/09/25 13:14:53;;;;;;;1.83;1.45;;;;;;;;;;5137041;28;20207;-91
2023/09/25 13:17:20;;;;;;;1.20;1.10;;;;;;;;;;5134626;28;20264;-92
2023/09/25 13:19:48;;;;;;;1.27;1.23;;;;;;;;;;5136242;28;20234;-93
2023/09/25 13:22:16;;;;;;;1.38;1.27;;;;;;;;;;5135090;28;20195;-91
2023/09/25 13:24:43;;;;;;;1.45;1.30;;;;;;;;;;5134582;28;20200;-92
2023/09/25 13:27:12;;;;;;;3.80;1.65;;;;;;;;;;5137994;28;20198;-91
2023/09/25 13:29:40;;;;;;;1.67;1.38;;;;;;;;;;5138018;28;20204;-92
2023/09/25 13:32:07;;;;;;;2.33;1.70;;;;;;;;;;5136981;28;20188;-91
2023/09/25 13:34:35;;;;;;;1.48;1.38;;;;;;;;;;5137054;28;20187;-92
2023/09/25 13:37:04;;;;;;;1.00;1.00;;;;;;;;;;5136549;28;20199;-91
2023/09/25 13:39:32;;;;;;;5.40;1.52;;;;;;;;;;5134966;28;20213;-93
2023/09/25 13:42:00;;;;;;;0.90;0.90;;;;;;;;;;5134509;28;20200;-91
2023/09/25 13:44:29;;;;;;;1.30;1.20;;;;;;;;;;5134318;28;20203;-92
2023/09/25 13:46:57;;;;;;;1.23;1.13;;;;;;;;;;5135430;28;20257;-91
2023/09/25 13:49:25;;;;;;;1.98;1.88;;;;;;;;;;5138309;28;20207;-89
2023/09/25 13:51:52;;;;;;;2.08;1.27;;;;;;;;;;5138611;28;20213;-89
2023/09/25 13:54:20;;;;;;;1.27;1.17;;;;;;;;;;5138545;28;20187;-90
2023/09/25 13:56:47;;;;;;;1.75;1.65;;;;;;;;;;5136999;28;20199;-92
2023/09/25 13:59:17;;;;;;;1.40;1.30;;;;;;;;;;5132590;28;20239;-92
2023/09/25 14:01:46;;;;;;;1.30;1.20;;;;;;;;;;5133831;28;20183;-92
2023/09/25 14:04:15;;;;;;;1.40;1.30;;;;;;;;;;5131959;28;20259;-91
2023/09/25 14:06:44;;;;;;;1.73;1.20;;;;;;;;;;5131466;28;20200;-92
2023/09/25 14:09:11;;;;;;;1.20;1.10;;;;;;;;;;5132255;28;20212;-92
2023/09/25 14:11:39;;;;;;;1.80;1.38;;;;;;;;;;5131655;27;20195;-91
2023/09/25 14:14:08;;;;;;;1.30;1.20;;;;;;;;;;5134312;28;20207;-92
2023/09/25 14:16:35;;;;;;;1.88;1.77;;;;;;;;;;5133516;27;20218;-91
2023/09/25 14:19:04;;;;;;;1.10;1.00;;;;;;;;;;5134591;27;20208;-91
2023/09/25 14:21:32;;;;;;;1.15;1.05;;;;;;;;;;5135046;27;20199;-93
2023/09/25 14:24:00;;;;;;;0.90;0.90;;;;;;;;;;5130404;27;20208;-90
2023/09/25 14:26:28;;;;;;;0.90;0.90;;;;;;;;;;5133037;28;20195;-91
2023/09/25 14:28:56;;;;;;;1.52;1.27;;;;;;;;;;5133584;27;20232;-91
2023/09/25 14:31:23;;;;;;;1.30;1.20;;;;;;;;;;5131235;27;20215;-92
2023/09/25 14:33:51;;;;;;;1.00;1.00;;;;;;;;;;5130039;28;20223;-93
2023/09/25 14:36:20;;;;;;;0.80;0.80;;;;;;;;;;5131774;27;20200;-92
2023/09/25 14:38:47;;;;;;;1.45;1.35;;;;;;;;;;5131506;28;20227;-92
2023/09/25 14:41:15;;;;;;;1.30;1.20;;;;;;;;;;5135087;27;20208;-93
2023/09/25 14:43:42;;;;;;;0.90;0.90;;;;;;;;;;5133093;28;20215;-91
2023/09/25 14:46:10;;;;;;;1.20;1.10;;;;;;;;;;5134644;28;20208;-91
2023/09/25 14:48:37;;;;;;;1.40;1.30;;;;;;;;;;5136226;28;20219;-91
2023/09/25 14:51:05;;;;;;;0.90;0.90;;;;;;;;;;5140344;28;20187;-92